Time;durP1;ratioP1;P1;durP2;ratioP2;P2;SDS_P1;SDS_P2;PMS_P1;PMS_P2;Temp;Humidity;BMP_temperature;BMP_pressure;BME280_temperature;BME280_humidity;BME280_pressure;Samples;Min_cycle;Max_cycle;Signal;HPM_P1;HPM_P2
2023/03/26 00:01:15;;;;;;;6.97;2.90;;;;;;;-148.88;100.00;75604.56;5061680;28;20025;-78
2023/03/26 00:03:43;;;;;;;4.90;2.50;;;;;;;-148.88;100.00;75606.59;5080471;28;20024;-78
2023/03/26 00:06:11;;;;;;;6.53;2.95;;;;;;;-148.88;100.00;75610.66;5061306;28;20027;-78
2023/03/26 00:08:38;;;;;;;7.78;2.50;;;;;;;-148.88;100.00;75610.66;5059312;28;20107;-78
2023/03/26 00:11:05;;;;;;;9.20;2.90;;;;;;;-148.88;100.00;75598.47;5076617;28;20024;-78
2023/03/26 00:13:32;;;;;;;9.90;3.00;;;;;;;-148.88;100.00;75606.59;5058653;28;20086;-77
2023/03/26 00:15:57;;;;;;;6.25;2.70;;;;;;;-148.88;100.00;75614.72;5077016;28;20077;-77
2023/03/26 00:18:29;;;;;;;5.82;2.78;;;;;;;-148.88;100.00;75612.69;5077296;28;20036;-78
2023/03/26 00:20:58;;;;;;;3.88;2.30;;;;;;;-148.88;100.00;75614.72;5077808;28;20028;-78
2023/03/26 00:23:24;;;;;;;5.63;2.92;;;;;;;-148.88;100.00;75630.97;5079829;28;20458;-78
2023/03/26 00:25:50;;;;;;;8.60;2.80;;;;;;;-148.88;100.00;75620.81;5085921;28;20052;-78
2023/03/26 00:28:20;;;;;;;9.50;4.13;;;;;;;-148.88;100.00;75620.81;5084685;28;20029;-78
2023/03/26 00:30:46;;;;;;;7.25;3.05;;;;;;;-148.88;100.00;75620.81;5066678;28;20025;-78
2023/03/26 00:33:11;;;;;;;9.90;2.70;;;;;;;-148.88;100.00;75626.91;5067557;28;20024;-78
2023/03/26 00:35:37;;;;;;;6.90;2.40;;;;;;;-148.88;100.00;75630.97;5085853;28;20080;-78
2023/03/26 00:38:02;;;;;;;4.22;2.42;;;;;;;-148.88;100.00;75637.06;5083775;28;20028;-78
2023/03/26 00:40:28;;;;;;;9.13;2.42;;;;;;;-148.88;100.00;75620.81;5083082;28;20032;-78
2023/03/26 00:42:54;;;;;;;5.43;1.83;;;;;;;-148.88;100.00;75626.91;5081935;28;20029;-78
2023/03/26 00:45:20;;;;;;;9.80;3.83;;;;;;;-148.88;100.00;75633.00;5081630;28;20098;-78
2023/03/26 00:47:46;;;;;;;6.97;2.55;;;;;;;-148.88;100.00;75637.06;5081805;28;20058;-77
2023/03/26 00:50:14;;;;;;;6.40;2.25;;;;;;;-148.88;100.00;75630.97;5082479;28;20362;-78
2023/03/26 00:52:45;;;;;;;5.55;2.50;;;;;;;-148.88;100.00;75635.03;5064395;28;20020;-78
2023/03/26 00:55:11;;;;;;;8.00;2.70;;;;;;;-148.88;100.00;75651.28;5064733;28;20044;-78
2023/03/26 00:57:36;;;;;;;12.27;4.55;;;;;;;-148.88;100.00;75647.22;5064703;28;20039;-78
2023/03/26 01:00:11;;;;;;;6.82;2.30;;;;;;;-148.88;100.00;75645.19;5064762;28;20115;-78
2023/03/26 01:02:37;;;;;;;7.95;2.80;;;;;;;-148.88;100.00;75651.28;5065313;28;20034;-77
2023/03/26 01:05:42;;;;;;;7.45;3.30;;;;;;;-148.88;100.00;75643.16;5082609;28;20403;-78
2023/03/26 01:08:16;;;;;;;6.35;2.90;;;;;;;-148.88;100.00;75628.94;5081650;28;20035;-78
2023/03/26 01:10:43;;;;;;;10.75;3.03;;;;;;;-148.88;100.00;75622.84;5081888;28;20108;-77
2023/03/26 01:13:08;;;;;;;6.60;2.78;;;;;;;-148.88;100.00;75626.91;5063896;28;20032;-78
2023/03/26 01:15:37;;;;;;;7.85;2.90;;;;;;;-148.88;100.00;75630.97;5082546;28;20098;-77
2023/03/26 01:18:04;;;;;;;11.63;3.05;;;;;;;-148.88;100.00;75639.09;5081904;28;20082;-78
2023/03/26 01:20:32;;;;;;;8.85;3.10;;;;;;;-148.88;100.00;75635.03;5061953;28;20031;-78
2023/03/26 01:23:04;;;;;;;9.98;3.33;;;;;;;-148.88;100.00;75626.91;5080463;28;20112;-78
2023/03/26 01:25:36;;;;;;;6.68;3.33;;;;;;;-148.88;100.00;75637.06;5080226;28;20024;-77
2023/03/26 01:28:07;;;;;;;9.18;3.28;;;;;;;-148.88;100.00;75633.00;5062287;28;20024;-77
2023/03/26 01:30:48;;;;;;;6.75;2.75;;;;;;;-148.88;100.00;75635.03;5081470;28;20043;-78
2023/03/26 01:33:28;;;;;;;9.25;3.42;;;;;;;-148.88;100.00;75643.16;5081688;28;20058;-78
2023/03/26 01:36:07;;;;;;;9.45;3.80;;;;;;;-148.88;100.00;75635.03;5063010;28;20038;-77
2023/03/26 01:38:58;;;;;;;11.70;3.70;;;;;;;-148.88;100.00;75635.03;5063580;28;20025;-77
2023/03/26 01:41:41;;;;;;;16.10;4.20;;;;;;;-148.88;100.00;75626.91;5081855;28;20024;-77
2023/03/26 01:44:17;;;;;;;12.15;6.07;;;;;;;-148.88;100.00;75645.19;5064269;28;20020;-78
2023/03/26 01:46:44;;;;;;;9.07;3.58;;;;;;;-148.88;100.00;75649.25;5063186;28;20032;-78
2023/03/26 01:49:11;;;;;;;11.38;4.45;;;;;;;-148.88;100.00;75637.06;5081661;28;20035;-78
2023/03/26 01:51:39;;;;;;;12.50;3.95;;;;;;;-148.88;100.00;75647.22;5064713;28;20024;-78
2023/03/26 01:54:09;;;;;;;13.32;4.63;;;;;;;-148.88;100.00;75643.16;5081576;28;20036;-78
2023/03/26 01:56:59;;;;;;;10.63;4.13;;;;;;;-148.88;100.00;75649.25;5063985;28;20040;-78
2023/03/26 01:59:33;;;;;;;11.40;4.25;;;;;;;-148.88;100.00;75639.09;5055658;28;20032;-78
2023/03/26 02:02:04;;;;;;;8.43;3.72;;;;;;;-148.88;100.00;75651.28;5081288;28;20072;-78
2023/03/26 02:04:51;;;;;;;13.68;3.78;;;;;;;-148.88;100.00;75639.09;5080981;28;20025;-78
2023/03/26 02:07:33;;;;;;;12.60;4.30;;;;;;;-148.88;100.00;75618.78;5081682;28;20035;-78
2023/03/26 02:10:05;;;;;;;12.88;3.80;;;;;;;-148.88;100.00;75641.13;5082982;28;20023;-78
2023/03/26 02:12:32;;;;;;;14.30;4.10;;;;;;;-148.88;100.00;75639.09;5082548;28;20016;-78
2023/03/26 02:15:01;;;;;;;13.55;3.65;;;;;;;-148.88;100.00;75635.03;5064850;28;20111;-78
2023/03/26 02:17:28;;;;;;;11.57;3.75;;;;;;;-148.88;100.00;75643.16;5082695;28;20089;-78
2023/03/26 02:19:55;;;;;;;12.27;3.80;;;;;;;-148.88;100.00;75645.19;5064165;28;20024;-78
2023/03/26 02:22:21;;;;;;;10.02;3.83;;;;;;;-148.88;100.00;75645.19;5064708;28;20017;-77
2023/03/26 02:24:47;;;;;;;12.20;3.58;;;;;;;-148.88;100.00;75643.16;5064323;28;20016;-78
2023/03/26 02:27:12;;;;;;;8.32;3.90;;;;;;;-148.88;100.00;75647.22;5082330;28;20431;-78
2023/03/26 02:29:39;;;;;;;9.82;3.35;;;;;;;-148.88;100.00;75659.41;5079284;28;20036;-78
2023/03/26 02:32:06;;;;;;;10.35;3.15;;;;;;;-148.88;100.00;75651.28;5079558;28;20036;-77
2023/03/26 02:34:31;;;;;;;6.07;2.70;;;;;;;-148.88;100.00;75659.41;5079340;28;20024;-77
2023/03/26 02:36:57;;;;;;;7.15;3.70;;;;;;;-148.88;100.00;75661.44;5080031;28;20105;-78
2023/03/26 02:39:23;;;;;;;10.68;3.53;;;;;;;-148.88;100.00;75667.53;5079548;28;20024;-78
2023/03/26 02:41:48;;;;;;;8.82;3.17;;;;;;;-148.88;100.00;75663.47;5079541;28;20505;-77
2023/03/26 02:44:14;;;;;;;11.52;3.60;;;;;;;-148.88;100.00;75675.66;5080129;28;20032;-78
2023/03/26 02:46:39;;;;;;;11.68;3.92;;;;;;;-148.88;100.00;75667.53;5061677;28;20024;-78
2023/03/26 02:49:05;;;;;;;8.30;3.45;;;;;;;-148.88;100.00;75687.84;5062981;28;20024;-78
2023/03/26 02:51:33;;;;;;;10.00;3.80;;;;;;;-148.88;100.00;75671.59;5080329;28;20542;-78
2023/03/26 02:54:00;;;;;;;14.27;3.78;;;;;;;-148.88;100.00;75663.47;5063579;28;20024;-77
2023/03/26 02:56:25;;;;;;;12.52;4.20;;;;;;;-148.88;100.00;75659.41;5063412;28;20024;-78
2023/03/26 02:58:50;;;;;;;10.93;3.72;;;;;;;-148.88;100.00;75661.44;5081423;28;20024;-78
2023/03/26 03:01:21;;;;;;;16.70;4.70;;;;;;;-148.88;100.00;75659.41;5135864;22;20049;-88
2023/03/26 03:03:47;;;;;;;11.80;4.18;;;;;;;-148.88;100.00;75667.53;5053292;28;20037;-88
2023/03/26 03:06:15;;;;;;;6.85;3.35;;;;;;;-148.88;100.00;75669.56;5053066;28;20029;-88
2023/03/26 03:08:41;;;;;;;11.27;4.10;;;;;;;-148.88;100.00;75663.47;5036541;28;20025;-87
2023/03/26 03:11:10;;;;;;;13.02;3.60;;;;;;;-148.88;100.00;75641.13;5052753;28;20028;-87
2023/03/26 03:13:35;;;;;;;7.18;3.67;;;;;;;-148.88;100.00;75663.47;5054061;28;20051;-87
2023/03/26 03:16:01;;;;;;;12.93;3.70;;;;;;;-148.88;100.00;75663.47;5036026;28;20061;-87
2023/03/26 03:18:26;;;;;;;9.13;3.60;;;;;;;-148.88;100.00;75655.34;5036278;28;20070;-87
2023/03/26 03:20:52;;;;;;;12.30;4.70;;;;;;;-148.88;100.00;75655.34;5053769;28;20044;-86
2023/03/26 03:23:18;;;;;;;15.68;4.57;;;;;;;-148.88;100.00;75647.22;5035889;28;20079;-87
2023/03/26 03:25:43;;;;;;;11.93;4.00;;;;;;;-148.88;100.00;75653.31;5037147;28;20021;-86
2023/03/26 03:28:10;;;;;;;9.55;3.70;;;;;;;-148.88;100.00;75649.25;5036173;28;20021;-86
2023/03/26 03:30:35;;;;;;;10.68;4.65;;;;;;;-148.88;100.00;75630.97;5052444;28;20017;-86
2023/03/26 03:33:01;;;;;;;20.35;4.72;;;;;;;-148.88;100.00;75618.78;5035891;28;20023;-86
2023/03/26 03:35:31;;;;;;;12.23;5.03;;;;;;;-148.88;100.00;75630.97;5036660;28;20021;-86
2023/03/26 03:37:57;;;;;;;10.63;4.65;;;;;;;-148.88;100.00;75618.78;5036389;28;20063;-87
2023/03/26 03:40:22;;;;;;;13.27;4.45;;;;;;;-148.88;100.00;75610.66;5036708;28;20021;-86
2023/03/26 03:42:48;;;;;;;13.93;5.30;;;;;;;-148.88;100.00;75626.91;5055318;28;20025;-87
2023/03/26 03:45:13;;;;;;;9.05;4.20;;;;;;;-148.88;100.00;75618.78;5037045;28;20043;-86
2023/03/26 03:47:38;;;;;;;12.52;4.80;;;;;;;-148.88;100.00;75618.78;5036443;28;20435;-85
2023/03/26 03:50:06;;;;;;;12.68;5.28;;;;;;;-148.88;100.00;75618.78;5036477;28;20135;-86
2023/03/26 03:52:31;;;;;;;18.67;4.57;;;;;;;-148.88;100.00;75618.78;5036359;28;20021;-84
2023/03/26 03:54:56;;;;;;;12.85;4.72;;;;;;;-148.88;100.00;75624.88;5037014;28;20036;-86
2023/03/26 03:57:22;;;;;;;19.00;5.43;;;;;;;-148.88;100.00;75618.78;5036499;28;20056;-86
2023/03/26 03:59:50;;;;;;;14.48;4.88;;;;;;;-148.88;100.00;75602.53;5036760;28;20458;-85
2023/03/26 04:02:24;;;;;;;12.40;4.78;;;;;;;-148.88;100.00;75606.59;5055081;28;20086;-86
2023/03/26 04:04:51;;;;;;;12.15;5.22;;;;;;;-148.88;100.00;75618.78;5042846;28;20107;-85
2023/03/26 04:07:17;;;;;;;15.75;4.90;;;;;;;-148.88;100.00;75614.72;5045078;28;20021;-86
2023/03/26 04:09:42;;;;;;;12.98;5.53;;;;;;;-148.88;100.00;75610.66;5059337;28;20554;-86
2023/03/26 04:12:08;;;;;;;14.63;5.28;;;;;;;-148.88;100.00;75572.09;5040265;28;20478;-85
2023/03/26 04:14:47;;;;;;;11.63;5.32;;;;;;;-148.88;100.00;75604.56;5021338;28;20494;-86
2023/03/26 04:17:14;;;;;;;19.00;10.68;;;;;;;-148.88;100.00;75592.38;5053891;28;20226;-85
2023/03/26 04:19:43;;;;;;;15.27;5.57;;;;;;;-148.88;100.00;75606.59;5015660;28;20060;-87
2023/03/26 04:22:10;;;;;;;21.30;10.73;;;;;;;-148.88;100.00;75598.47;5037717;28;20021;-85
2023/03/26 04:24:39;;;;;;;16.02;6.20;;;;;;;-148.88;100.00;75596.44;5053805;28;20120;-86
2023/03/26 04:27:19;;;;;;;18.70;6.50;;;;;;;-148.88;100.00;75590.34;5038353;28;20025;-85
2023/03/26 04:29:48;;;;;;;18.63;6.05;;;;;;;-148.88;100.00;75596.44;5037596;28;20033;-86
2023/03/26 04:32:28;;;;;;;17.27;6.32;;;;;;;-148.88;100.00;75584.25;5037274;28;20017;-87
2023/03/26 04:34:59;;;;;;;18.25;6.45;;;;;;;-148.88;100.00;75578.19;5053977;28;20033;-85
2023/03/26 04:37:45;;;;;;;16.35;6.05;;;;;;;-148.88;100.00;75578.19;5038186;28;20032;-85
2023/03/26 04:40:29;;;;;;;19.10;7.45;;;;;;;-148.88;100.00;75586.31;5036270;28;20059;-86
2023/03/26 04:42:58;;;;;;;19.67;7.18;;;;;;;-148.88;100.00;75588.34;5035623;28;20491;-86
2023/03/26 04:45:29;;;;;;;18.52;7.00;;;;;;;-148.88;100.00;75592.38;5035802;28;20073;-85
2023/03/26 04:48:01;;;;;;;17.50;6.93;;;;;;;-148.88;100.00;75602.53;5035919;28;20478;-84
2023/03/26 04:50:32;;;;;;;17.60;6.40;;;;;;;-148.88;100.00;75590.34;5036229;28;20029;-84
2023/03/26 04:52:57;;;;;;;20.63;6.25;;;;;;;-148.88;100.00;75570.03;5037614;28;20029;-85
2023/03/26 04:55:52;;;;;;;20.40;7.90;;;;;;;-148.88;100.00;75582.22;5055285;28;20072;-86
2023/03/26 04:58:17;;;;;;;17.20;6.70;;;;;;;-148.88;100.00;75582.22;5046108;28;20037;-86
2023/03/26 05:00:43;;;;;;;16.77;6.20;;;;;;;-148.88;100.00;75586.31;5035782;28;20039;-86
2023/03/26 05:03:12;;;;;;;24.95;7.63;;;;;;;-148.88;100.00;75572.09;5035091;28;20539;-86
2023/03/26 05:05:39;;;;;;;18.63;6.38;;;;;;;-148.88;100.00;75572.09;5035100;28;20103;-87
2023/03/26 05:08:05;;;;;;;17.33;6.65;;;;;;;-148.88;100.00;75574.13;5035985;28;20029;-86
2023/03/26 05:10:33;;;;;;;21.00;6.70;;;;;;;-148.88;100.00;75559.91;5055754;28;20025;-86
2023/03/26 05:12:58;;;;;;;17.13;6.65;;;;;;;-148.88;100.00;75561.94;5052089;28;20037;-87
2023/03/26 05:15:24;;;;;;;22.50;6.90;;;;;;;-148.88;100.00;75553.81;5041556;28;20040;-86
2023/03/26 05:17:58;;;;;;;21.73;6.82;;;;;;;-148.88;100.00;75549.75;5042256;28;20040;-85
2023/03/26 05:20:29;;;;;;;18.55;7.13;;;;;;;-148.88;100.00;75545.69;5041186;28;20036;-84
2023/03/26 05:22:57;;;;;;;17.02;6.63;;;;;;;-148.88;100.00;75537.56;5041453;28;20021;-84
2023/03/26 05:25:48;;;;;;;19.85;6.53;;;;;;;-148.88;100.00;75547.72;5041173;28;20032;-86
2023/03/26 05:28:14;;;;;;;18.98;5.95;;;;;;;-148.88;100.00;75539.59;5040890;28;20036;-85
2023/03/26 05:30:43;;;;;;;18.88;6.95;;;;;;;-148.88;100.00;75533.50;5040113;28;20115;-86
2023/03/26 05:33:09;;;;;;;14.85;6.28;;;;;;;-148.88;100.00;75533.50;5057441;28;20025;-85
2023/03/26 05:35:35;;;;;;;15.70;6.22;;;;;;;-148.88;100.00;75529.44;5039897;28;20167;-85
2023/03/26 05:38:01;;;;;;;28.45;12.20;;;;;;;-148.88;100.00;75525.38;5060658;28;20037;-86
2023/03/26 05:40:28;;;;;;;17.05;6.50;;;;;;;-148.88;100.00;75537.56;5040099;28;20043;-86
2023/03/26 05:43:11;;;;;;;20.67;6.82;;;;;;;-148.88;100.00;75543.66;5055813;28;20032;-86
2023/03/26 05:45:49;;;;;;;14.52;6.45;;;;;;;-148.88;100.00;75531.47;5057802;28;20025;-85
2023/03/26 05:48:14;;;;;;;21.30;6.85;;;;;;;-148.88;100.00;75531.47;5042535;28;20082;-84
2023/03/26 05:50:54;;;;;;;23.95;7.03;;;;;;;-148.88;100.00;75541.63;5040100;28;20021;-83
2023/03/26 05:53:22;;;;;;;23.58;7.57;;;;;;;-148.88;100.00;75533.50;5039819;28;20136;-85
2023/03/26 05:55:56;;;;;;;29.13;14.02;;;;;;;-148.88;100.00;75527.41;5039035;28;20029;-85
2023/03/26 05:58:29;;;;;;;25.27;7.05;;;;;;;-148.88;100.00;75513.19;5040884;28;20017;-84
2023/03/26 06:01:04;;;;;;;22.95;7.28;;;;;;;-148.88;100.00;75519.28;5057537;28;20037;-84
2023/03/26 06:04:28;;;;;;;21.60;6.85;;;;;;;-148.88;100.00;75505.06;5057836;28;20067;-84
2023/03/26 06:06:53;;;;;;;21.45;6.85;;;;;;;-148.88;100.00;75507.09;4957304;29;20031;-85
2023/03/26 06:09:19;;;;;;;27.17;7.63;;;;;;;-148.88;100.00;75486.78;4940829;29;20392;-84
2023/03/26 06:11:44;;;;;;;19.38;7.65;;;;;;;-148.88;100.00;75492.88;4994559;28;20106;-85
2023/03/26 06:14:10;;;;;;;26.08;7.88;;;;;;;-148.88;100.00;75492.88;5056140;28;20033;-86
2023/03/26 06:16:38;;;;;;;25.92;8.00;;;;;;;-148.88;100.00;75492.88;5039516;28;20071;-86
2023/03/26 06:19:04;;;;;;;29.33;8.13;;;;;;;-148.88;100.00;75488.81;5036970;28;20021;-86
2023/03/26 06:21:29;;;;;;;25.70;8.57;;;;;;;-148.88;100.00;75474.59;5038082;28;20098;-85
2023/03/26 06:23:58;;;;;;;39.65;16.35;;;;;;;-148.88;100.00;75468.50;5039430;28;20390;-86
2023/03/26 06:26:23;;;;;;;27.13;8.93;;;;;;;-148.88;100.00;75464.44;5038031;28;20025;-86
2023/03/26 06:28:48;;;;;;;28.40;9.10;;;;;;;-148.88;100.00;75472.56;5039440;28;20032;-86
2023/03/26 06:31:16;;;;;;;28.23;9.13;;;;;;;-148.88;100.00;75474.59;5039763;28;20040;-86
2023/03/26 06:33:41;;;;;;;49.20;21.58;;;;;;;-148.88;100.00;75478.66;5040198;28;20067;-85
2023/03/26 06:36:09;;;;;;;52.83;23.52;;;;;;;-148.88;100.00;75472.56;5040823;28;20028;-87
2023/03/26 06:38:35;;;;;;;22.85;8.23;;;;;;;-148.88;100.00;75501.00;5040638;28;20064;-86
2023/03/26 06:41:10;;;;;;;26.30;9.82;;;;;;;-148.88;100.00;75492.88;5039925;28;20021;-86
2023/03/26 06:43:36;;;;;;;21.38;7.65;;;;;;;-148.88;100.00;75501.00;5056984;28;20021;-85
2023/03/26 06:46:09;;;;;;;20.80;6.90;;;;;;;-148.88;100.00;75513.19;5048212;28;20032;-86
2023/03/26 06:48:35;;;;;;;22.92;7.40;;;;;;;-148.88;100.00;75523.34;5049821;28;20055;-86
2023/03/26 06:53:34;;;;;;;25.23;7.47;;;;;;;-148.88;100.00;75515.22;5066745;22;20055;-78
2023/03/26 06:56:00;;;;;;;14.85;6.68;;;;;;;-148.88;100.00;75503.03;5059124;28;20206;-78
2023/03/26 06:58:25;;;;;;;23.83;8.00;;;;;;;-148.88;100.00;75501.00;5079200;28;20027;-78
2023/03/26 07:00:55;;;;;;;24.40;9.75;;;;;;;-148.88;100.00;75478.66;5058328;28;20020;-78
2023/03/26 07:03:20;;;;;;;34.78;13.15;;;;;;;-148.88;100.00;75468.50;5074835;28;20033;-79
2023/03/26 07:05:46;;;;;;;30.90;13.10;;;;;;;-148.88;100.00;75448.19;5076651;28;20040;-78
2023/03/26 07:08:12;;;;;;;45.40;15.60;;;;;;;-148.88;100.00;75440.06;5076309;28;20024;-78
2023/03/26 07:10:37;;;;;;;44.75;16.25;;;;;;;-148.88;100.00;75431.94;5076604;28;20035;-78
2023/03/26 07:13:03;;;;;;;43.55;15.32;;;;;;;-148.88;100.00;75417.72;5074996;28;20036;-78
2023/03/26 07:15:28;;;;;;;50.97;17.98;;;;;;;-148.88;100.00;75407.56;5074782;28;20028;-78
2023/03/26 07:17:54;;;;;;;50.67;16.00;;;;;;;-148.88;100.00;75393.34;5056985;28;20128;-78
2023/03/26 07:20:20;;;;;;;61.33;28.75;;;;;;;-148.88;100.00;75411.63;5075618;28;20099;-78
2023/03/26 07:22:46;;;;;;;37.33;14.20;;;;;;;-148.88;100.00;75411.63;5056415;28;20116;-78
2023/03/26 07:25:13;;;;;;;49.92;14.80;;;;;;;-148.88;100.00;75395.38;5075299;28;20056;-78
2023/03/26 07:27:52;;;;;;;26.15;8.35;;;;;;;-148.88;100.00;75413.66;5056458;28;20031;-78
2023/03/26 07:30:44;;;;;;;22.38;7.57;;;;;;;-148.88;100.00;75401.47;5056652;28;20032;-78
2023/03/26 07:33:17;;;;;;;23.40;7.70;;;;;;;-148.88;100.00;75409.59;5050468;28;20039;-78
2023/03/26 07:36:12;;;;;;;25.83;9.48;;;;;;;-148.88;100.00;75419.75;5074239;28;20098;-78
2023/03/26 07:38:52;;;;;;;34.10;19.00;;;;;;;-148.88;100.00;75417.72;5056252;28;20119;-78
2023/03/26 07:41:48;;;;;;;28.38;10.43;;;;;;;-148.88;100.00;75415.69;5057033;28;20021;-78
2023/03/26 07:44:42;;;;;;;26.23;8.70;;;;;;;-148.88;100.00;75427.88;5052228;28;20414;-78
2023/03/26 07:47:31;;;;;;;23.20;9.70;;;;;;;-148.88;100.00;75425.84;5056436;28;20026;-78
2023/03/26 07:49:57;;;;;;;22.17;8.73;;;;;;;-148.88;100.00;75423.81;5074085;28;20025;-78
2023/03/26 07:52:23;;;;;;;29.85;9.10;;;;;;;-148.88;100.00;75407.56;5074304;28;20082;-78
2023/03/26 07:54:50;;;;;;;39.30;16.63;;;;;;;-148.88;100.00;75391.31;5073863;28;20063;-78
2023/03/26 07:57:44;;;;;;;30.77;9.52;;;;;;;-148.88;100.00;75391.31;5073649;28;20016;-78
2023/03/26 08:00:21;;;;;;;31.08;9.73;;;;;;;-148.88;100.00;75387.25;5074051;28;20027;-77
2023/03/26 08:03:17;;;;;;;30.63;9.88;;;;;;;-148.88;100.00;75377.09;5055694;28;20032;-78
2023/03/26 08:06:04;;;;;;;31.90;10.75;;;;;;;-148.88;100.00;75362.88;5055788;28;20021;-78
2023/03/26 08:08:46;;;;;;;26.02;9.07;;;;;;;-148.88;100.00;75362.88;5073978;28;20027;-78
2023/03/26 08:11:23;;;;;;;32.75;11.13;;;;;;;-148.88;100.00;75342.56;5073707;28;20017;-78
2023/03/26 08:14:47;;;;;;;36.88;16.25;;;;;;;-148.88;100.00;75338.50;5073936;28;20031;-78
2023/03/26 08:17:43;;;;;;;23.70;8.55;;;;;;;-148.88;100.00;75330.38;5047627;28;20043;-78
2023/03/26 08:20:17;;;;;;;21.73;8.07;;;;;;;-148.88;100.00;75322.25;5040599;28;20411;-78
2023/03/26 08:22:49;;;;;;;22.02;9.57;;;;;;;-148.88;100.00;75330.38;5057966;28;20487;-78
2023/03/26 08:25:32;;;;;;;13.68;4.68;;;;;;;-148.88;100.00;75334.44;5074680;28;20117;-78
2023/03/26 08:28:16;;;;;;;16.02;6.00;;;;;;;-148.88;100.00;75332.41;5056109;28;20024;-77
2023/03/26 08:30:42;;;;;;;17.02;7.63;;;;;;;-148.88;100.00;75320.22;5054443;28;20483;-76
2023/03/26 08:33:10;;;;;;;20.98;8.80;;;;;;;-148.88;100.00;75306.00;5072702;28;20043;-76
2023/03/26 08:35:40;;;;;;;14.93;5.43;;;;;;;-148.88;100.00;75314.13;5054763;28;20483;-76
2023/03/26 08:38:13;;;;;;;17.55;5.65;;;;;;;-148.88;100.00;75297.88;5072612;28;20097;-76
2023/03/26 08:41:10;;;;;;;24.02;9.80;;;;;;;-148.88;100.00;75295.84;5054617;28;20021;-77
2023/03/26 08:44:07;;;;;;;16.33;5.47;;;;;;;-148.88;100.00;75301.94;5054522;28;20029;-77
2023/03/26 08:46:50;;;;;;;21.40;9.65;;;;;;;-148.88;100.00;75297.88;5073318;28;20494;-78
2023/03/26 08:49:47;;;;;;;15.68;5.70;;;;;;;-148.88;100.00;75289.75;5058160;28;20539;-77
2023/03/26 08:52:42;;;;;;;23.27;11.18;;;;;;;-148.88;100.00;75295.84;5058131;28;20101;-77
2023/03/26 08:55:36;;;;;;;16.85;6.47;;;;;;;-148.88;100.00;75281.66;5076302;28;20025;-76
2023/03/26 08:58:13;;;;;;;;;;;;;;;-148.88;100.00;75281.66;5076745;28;20410;-76
2023/03/26 09:00:51;;;;;;;15.63;6.53;;;;;;;-148.88;100.00;75285.69;5058272;28;20283;-78
2023/03/26 09:03:35;;;;;;;21.42;7.32;;;;;;;-148.88;100.00;75281.66;5058212;28;20029;-77
2023/03/26 09:06:31;;;;;;;24.88;11.77;;;;;;;-148.88;100.00;75287.72;5059008;28;20040;-77
2023/03/26 09:09:15;;;;;;;18.42;5.68;;;;;;;-148.88;100.00;75281.66;5057972;28;20028;-77
2023/03/26 09:11:55;;;;;;;18.92;8.50;;;;;;;-148.88;100.00;75269.47;5057966;28;20036;-77
2023/03/26 09:14:54;;;;;;;15.60;7.80;;;;;;;-148.88;100.00;75277.59;5058621;28;20028;-77
2023/03/26 09:17:53;;;;;;;10.45;4.70;;;;;;;-148.88;100.00;75279.59;5076040;28;20463;-77
2023/03/26 09:20:56;;;;;;;18.13;4.85;;;;;;;-148.88;100.00;75289.75;5075861;28;20056;-77
2023/03/26 09:23:33;;;;;;;12.88;5.38;;;;;;;-148.88;100.00;75281.66;5076108;28;20029;-76
2023/03/26 09:26:17;;;;;;;17.48;8.80;;;;;;;-148.88;100.00;75275.56;5058133;28;20059;-77
2023/03/26 09:29:01;;;;;;;;;;;;;;;-148.88;100.00;75273.53;5058388;28;20387;-76
2023/03/26 09:32:01;;;;;;;14.82;5.22;;;;;;;-148.88;100.00;75277.59;5059229;28;19908;-77
2023/03/26 09:34:33;;;;;;;14.10;5.38;;;;;;;-148.88;100.00;75269.47;5078278;28;20024;-78
2023/03/26 09:37:17;;;;;;;12.55;5.03;;;;;;;-148.88;100.00;75265.41;5059791;28;20035;-77
2023/03/26 09:40:04;;;;;;;14.10;5.68;;;;;;;-148.88;100.00;75255.25;5076906;28;20017;-78
2023/03/26 09:42:53;;;;;;;17.70;8.25;;;;;;;-148.88;100.00;75253.22;5076812;28;20029;-78
2023/03/26 09:45:47;;;;;;;9.43;4.85;;;;;;;-148.88;100.00;75232.91;5075463;28;20031;-77
2023/03/26 09:48:56;;;;;;;19.23;5.63;;;;;;;-148.88;100.00;75224.78;5075809;28;20099;-77
2023/03/26 09:51:45;;;;;;;16.33;8.50;;;;;;;-148.88;100.00;75212.59;5048258;28;20033;-77
2023/03/26 09:54:43;;;;;;;14.15;4.88;;;;;;;-148.88;100.00;75204.47;5075384;28;20111;-77
2023/03/26 09:57:28;;;;;;;16.50;7.75;;;;;;;-148.88;100.00;75200.41;5074178;28;20067;-77
2023/03/26 10:00:08;;;;;;;15.10;8.15;;;;;;;-148.88;100.00;75206.50;5074791;28;20073;-77
2023/03/26 10:03:13;;;;;;;11.68;4.88;;;;;;;-148.88;100.00;75194.31;5056667;28;20020;-77
2023/03/26 10:05:47;;;;;;;14.75;4.97;;;;;;;-148.88;100.00;75178.06;5074461;28;20116;-77
2023/03/26 10:08:23;;;;;;;15.48;5.65;;;;;;;-148.88;100.00;75163.84;5056522;28;20055;-77
2023/03/26 10:11:10;;;;;;;19.17;8.35;;;;;;;-148.88;100.00;75145.56;5057698;28;20065;-78
2023/03/26 10:13:57;;;;;;;18.40;8.57;;;;;;;-148.88;100.00;75125.25;5075431;28;20383;-78
2023/03/26 10:16:51;;;;;;;14.63;7.65;;;;;;;-148.88;100.00;75115.09;5075105;28;20482;-78
2023/03/26 10:19:34;;;;;;;;;;;;;;;-148.88;100.00;75115.09;5031706;28;20028;-78
2023/03/26 10:22:20;;;;;;;16.75;7.80;;;;;;;-148.88;100.00;75119.16;5074848;28;20298;-78
2023/03/26 10:25:16;;;;;;;14.90;7.95;;;;;;;-148.88;100.00;75102.91;5075001;28;20051;-78
2023/03/26 10:28:00;;;;;;;15.15;5.30;;;;;;;-148.88;100.00;75121.19;5057880;28;20028;-78
2023/03/26 10:30:44;;;;;;;;;;;;;;;-148.88;100.00;75102.91;5075693;28;20051;-78
2023/03/26 10:33:44;;;;;;;17.98;9.07;;;;;;;-148.88;100.00;75106.97;5057479;28;19916;-78
2023/03/26 10:36:19;;;;;;;16.08;8.82;;;;;;;-148.88;100.00;75104.94;5057312;28;20123;-78
2023/03/26 10:39:12;;;;;;;12.32;5.82;;;;;;;-148.88;100.00;75102.91;5057634;28;20025;-80
2023/03/26 10:41:52;;;;;;;19.42;9.43;;;;;;;-148.88;100.00;75111.03;5056188;28;20109;-77
2023/03/26 10:44:42;;;;;;;18.10;5.32;;;;;;;-148.88;100.00;75100.88;5074243;28;20028;-77
2023/03/26 10:47:13;;;;;;;16.50;8.95;;;;;;;-148.88;100.00;75098.84;5073829;28;20020;-77
2023/03/26 10:49:52;;;;;;;11.65;7.88;;;;;;;-148.88;100.00;75086.69;5055925;28;20111;-77
2023/03/26 10:52:22;;;;;;;15.20;8.75;;;;;;;-148.88;100.00;75072.47;5055891;28;20544;-77
2023/03/26 10:55:06;;;;;;;12.00;7.13;;;;;;;-148.88;100.00;75094.81;5074361;28;20123;-77
2023/03/26 10:58:18;;;;;;;17.17;7.80;;;;;;;-148.88;100.00;75102.91;5073668;28;20412;-77
2023/03/26 11:00:53;;;;;;;14.60;7.47;;;;;;;-148.88;100.00;75074.50;5050783;28;20064;-77
2023/03/26 11:03:42;;;;;;;14.20;7.50;;;;;;;-148.88;99.69;75088.72;5055746;28;20016;-77
2023/03/26 11:06:17;;;;;;;13.93;7.75;;;;;;;-148.88;98.50;75082.63;5073563;28;20052;-77
2023/03/26 11:09:22;;;;;;;15.10;5.20;;;;;;;-148.88;99.52;75046.06;5054913;28;20388;-77
2023/03/26 11:11:53;;;;;;;16.50;7.78;;;;;;;-148.88;100.00;75046.06;5073708;28;20021;-77
2023/03/26 11:14:35;;;;;;;17.55;8.02;;;;;;;-148.88;99.57;75046.06;5073291;28;20033;-77
2023/03/26 11:17:55;;;;;;;19.95;8.05;;;;;;;-148.88;98.83;75046.06;5073194;28;20028;-77
2023/03/26 11:20:43;;;;;;;13.63;7.57;;;;;;;-148.88;97.80;75070.44;4991788;28;20068;-77
2023/03/26 11:23:25;;;;;;;17.65;7.82;;;;;;;-148.88;97.47;75066.38;5068866;28;20043;-78
2023/03/26 11:26:13;;;;;;;16.70;8.00;;;;;;;-148.88;97.45;75074.50;5073275;28;20062;-77
2023/03/26 11:28:56;;;;;;;9.50;4.55;;;;;;;-148.88;98.53;75068.41;5072866;28;20382;-77
2023/03/26 11:31:46;;;;;;;14.73;7.72;;;;;;;-148.88;98.89;75088.72;5073174;28;20023;-77
2023/03/26 11:34:16;;;;;;;13.90;7.38;;;;;;;-148.88;97.63;75117.13;5073187;28;20145;-77
2023/03/26 11:36:48;;;;;;;13.75;4.65;;;;;;;-148.88;98.73;75123.22;5072874;28;20016;-77
2023/03/26 11:39:28;;;;;;;14.52;7.43;;;;;;;-148.88;98.12;75113.06;5054846;28;20028;-77
2023/03/26 11:42:13;;;;;;;18.33;7.53;;;;;;;-148.88;99.63;75123.22;5073138;28;20028;-77